BWA700 TTPP-TNCC
Flight info
| Callsign | BWA700 |
|---|---|
| Flight time | 1h 54m |
| Altitude | 38000 |
| Route | ANADA DCT RAYAS DCT SCAPA SCAPA1B |
| Aircraft | B38M/M-SDE1FGHILORVWXY/HB1 |
Departure
| Time | 2026-05-07 22:37 |
|---|---|
| Airport | Piarco International Airport (TTPP) |
Arrival
| Time | 2026-05-08 00:31 |
|---|---|
| Airport | Hato International Airport (TNCC) |
| Time | Latitude | Longitude | Altitude | Speed | Heading |
|---|---|---|---|---|---|
| 2026-05-07 22:21 | 10.59951 | -61.33861 | 19 ft | 0 kts | 359° |
| 2026-05-07 22:23 | 10.59950 | -61.33861 | 19 ft | 1 kts | 359° |
| 2026-05-07 22:24 | 10.59925 | -61.33861 | 19 ft | 4 kts | 359° |
| 2026-05-07 22:24 | 10.59899 | -61.33861 | 19 ft | 4 kts | 358° |
| 2026-05-07 22:24 | 10.59872 | -61.33857 | 19 ft | 4 kts | 344° |
| 2026-05-07 22:24 | 10.59848 | -61.33847 | 20 ft | 4 kts | 319° |
| 2026-05-07 22:25 | 10.59837 | -61.33828 | 19 ft | 2 kts | 270° |
| 2026-05-07 22:25 | 10.59837 | -61.33822 | 21 ft | 0 kts | 270° |
| 2026-05-07 22:28 | 10.59837 | -61.33823 | 20 ft | 1 kts | 270° |
| 2026-05-07 22:28 | 10.59836 | -61.33838 | 19 ft | 4 kts | 267° |
| 2026-05-07 22:28 | 10.59833 | -61.33912 | 19 ft | 15 kts | 268° |
| 2026-05-07 22:28 | 10.59830 | -61.34030 | 19 ft | 18 kts | 269° |
| 2026-05-07 22:29 | 10.59824 | -61.34162 | 19 ft | 20 kts | 265° |
| 2026-05-07 22:29 | 10.59853 | -61.34237 | 19 ft | 7 kts | 3° |
| 2026-05-07 22:29 | 10.59868 | -61.34223 | 19 ft | 0 kts | 89° |
| 2026-05-07 22:33 | 10.59868 | -61.34220 | 19 ft | 2 kts | 91° |
| 2026-05-07 22:33 | 10.59839 | -61.34189 | 19 ft | 11 kts | 165° |
| 2026-05-07 22:33 | 10.59724 | -61.34207 | 20 ft | 24 kts | 232° |
| 2026-05-07 22:34 | 10.59704 | -61.34403 | 21 ft | 31 kts | 264° |
| 2026-05-07 22:34 | 10.59585 | -61.34532 | 19 ft | 27 kts | 176° |
| 2026-05-07 22:34 | 10.59414 | -61.34546 | 20 ft | 16 kts | 238° |
| 2026-05-07 22:34 | 10.59405 | -61.34658 | 20 ft | 17 kts | 266° |
| 2026-05-07 22:35 | 10.59374 | -61.34773 | 22 ft | 18 kts | 256° |
| 2026-05-07 22:35 | 10.59352 | -61.34905 | 20 ft | 20 kts | 271° |
| 2026-05-07 22:35 | 10.59349 | -61.35049 | 19 ft | 21 kts | 268° |
| 2026-05-07 22:35 | 10.59389 | -61.35186 | 19 ft | 22 kts | 342° |
| 2026-05-07 22:36 | 10.59528 | -61.35169 | 19 ft | 5 kts | 38° |
| 2026-05-07 22:36 | 10.59532 | -61.35148 | 19 ft | 0 kts | 89° |
| 2026-05-07 22:37 | 10.59533 | -61.35053 | 19 ft | 48 kts | 89° |
| 2026-05-07 22:37 | 10.59537 | -61.34422 | 19 ft | 128 kts | 90° |
| 2026-05-07 22:37 | 10.59559 | -61.33349 | 86 ft | 183 kts | 87° |
| 2026-05-07 22:37 | 10.59621 | -61.31990 | 792 ft | 197 kts | 85° |
| 2026-05-07 22:38 | 10.59752 | -61.30625 | 1921 ft | 195 kts | 81° |
| 2026-05-07 22:38 | 10.59982 | -61.29166 | 2549 ft | 222 kts | 79° |
| 2026-05-07 22:38 | 10.60394 | -61.27604 | 3378 ft | 234 kts | 64° |
| 2026-05-07 22:38 | 10.61454 | -61.26340 | 4407 ft | 238 kts | 32° |
| 2026-05-07 22:39 | 10.63016 | -61.25777 | 5292 ft | 253 kts | 5° |
| 2026-05-07 22:39 | 10.64814 | -61.26029 | 6069 ft | 270 kts | 339° |
| 2026-05-07 22:39 | 10.66400 | -61.27087 | 6986 ft | 279 kts | 318° |
| 2026-05-07 22:39 | 10.67900 | -61.28386 | 7927 ft | 286 kts | 322° |
| 2026-05-07 22:40 | 10.69539 | -61.29563 | 8881 ft | 291 kts | 330° |
| 2026-05-07 22:40 | 10.70700 | -61.30259 | 9504 ft | 294 kts | 329° |
| 2026-05-07 22:40 | 10.72667 | -61.31476 | 10452 ft | 303 kts | 328° |
| 2026-05-07 22:40 | 10.74517 | -61.32645 | 10928 ft | 323 kts | 328° |
| 2026-05-07 22:41 | 10.76476 | -61.33898 | 11412 ft | 340 kts | 328° |
| 2026-05-07 22:41 | 10.78521 | -61.35217 | 11962 ft | 353 kts | 327° |
| 2026-05-07 22:41 | 10.80624 | -61.36580 | 12549 ft | 363 kts | 327° |
| 2026-05-07 22:41 | 10.82773 | -61.37977 | 13219 ft | 370 kts | 327° |
| 2026-05-07 22:42 | 10.84934 | -61.39384 | 13923 ft | 373 kts | 327° |
| 2026-05-07 22:42 | 10.87136 | -61.40816 | 14611 ft | 377 kts | 327° |
| 2026-05-07 22:42 | 10.89359 | -61.42262 | 15293 ft | 381 kts | 327° |
| 2026-05-07 22:42 | 10.91600 | -61.43721 | 15911 ft | 384 kts | 327° |
| 2026-05-07 22:43 | 10.93445 | -61.44922 | 16434 ft | 387 kts | 326° |
| 2026-05-07 22:43 | 10.95723 | -61.46406 | 17026 ft | 391 kts | 326° |
| 2026-05-07 22:43 | 10.98029 | -61.47907 | 17590 ft | 395 kts | 326° |
| 2026-05-07 22:43 | 10.99564 | -61.48908 | 17964 ft | 397 kts | 326° |
| 2026-05-07 22:44 | 11.02242 | -61.50653 | 18591 ft | 401 kts | 326° |
| 2026-05-07 22:44 | 11.04604 | -61.52191 | 19120 ft | 404 kts | 326° |
| 2026-05-07 22:44 | 11.06963 | -61.53730 | 19631 ft | 407 kts | 325° |
| 2026-05-07 22:44 | 11.09353 | -61.55288 | 20107 ft | 410 kts | 326° |
| 2026-05-07 22:45 | 11.11761 | -61.56858 | 20591 ft | 412 kts | 325° |
| 2026-05-07 22:45 | 11.14182 | -61.58437 | 21050 ft | 415 kts | 326° |
| 2026-05-07 22:45 | 11.16631 | -61.60033 | 21486 ft | 418 kts | 325° |
| 2026-05-07 22:45 | 11.19089 | -61.61639 | 21922 ft | 421 kts | 325° |
| 2026-05-07 22:46 | 11.20755 | -61.62726 | 22197 ft | 423 kts | 325° |
| 2026-05-07 22:46 | 11.23243 | -61.64350 | 22609 ft | 425 kts | 325° |
| 2026-05-07 22:46 | 11.25725 | -61.65967 | 23005 ft | 428 kts | 325° |
| 2026-05-07 22:46 | 11.28193 | -61.67579 | 23393 ft | 430 kts | 325° |
| 2026-05-07 22:47 | 11.30718 | -61.69227 | 23762 ft | 433 kts | 325° |
| 2026-05-07 22:47 | 11.32928 | -61.70671 | 24070 ft | 435 kts | 325° |
| 2026-05-07 22:47 | 11.35259 | -61.72194 | 24392 ft | 437 kts | 325° |
| 2026-05-07 22:47 | 11.37829 | -61.73872 | 24744 ft | 439 kts | 325° |
| 2026-05-07 22:48 | 11.40390 | -61.75546 | 25076 ft | 442 kts | 325° |
| 2026-05-07 22:48 | 11.42980 | -61.77239 | 25413 ft | 444 kts | 324° |
| 2026-05-07 22:48 | 11.45594 | -61.78949 | 25750 ft | 446 kts | 324° |
| 2026-05-07 22:48 | 11.48195 | -61.80650 | 26072 ft | 449 kts | 324° |
| 2026-05-07 22:49 | 11.50826 | -61.82371 | 26389 ft | 451 kts | 324° |
| 2026-05-07 22:49 | 11.53479 | -61.84107 | 26714 ft | 453 kts | 324° |
| 2026-05-07 22:49 | 11.56139 | -61.85847 | 27038 ft | 455 kts | 324° |
| 2026-05-07 22:49 | 11.58799 | -61.87589 | 27350 ft | 458 kts | 324° |
| 2026-05-07 22:50 | 11.61489 | -61.89349 | 27669 ft | 460 kts | 324° |
| 2026-05-07 22:50 | 11.64192 | -61.91120 | 27971 ft | 462 kts | 324° |
| 2026-05-07 22:50 | 11.66899 | -61.92893 | 28267 ft | 464 kts | 324° |
| 2026-05-07 22:50 | 11.69612 | -61.94671 | 28558 ft | 466 kts | 324° |
| 2026-05-07 22:51 | 11.72336 | -61.96456 | 28843 ft | 468 kts | 324° |
| 2026-05-07 22:51 | 11.75085 | -61.98258 | 29124 ft | 470 kts | 324° |
| 2026-05-07 22:51 | 11.77843 | -62.00066 | 29416 ft | 472 kts | 324° |
| 2026-05-07 22:51 | 11.80609 | -62.01880 | 29681 ft | 474 kts | 324° |
| 2026-05-07 22:52 | 11.83395 | -62.03709 | 29955 ft | 476 kts | 324° |
| 2026-05-07 22:52 | 11.86188 | -62.05541 | 30218 ft | 478 kts | 324° |
| 2026-05-07 22:52 | 11.88990 | -62.07380 | 30481 ft | 480 kts | 324° |
| 2026-05-07 22:52 | 11.91780 | -62.09211 | 30810 ft | 479 kts | 324° |
| 2026-05-07 22:53 | 11.94584 | -62.11052 | 31160 ft | 479 kts | 324° |
| 2026-05-07 22:53 | 11.97383 | -62.12891 | 31515 ft | 478 kts | 324° |
| 2026-05-07 22:53 | 12.00185 | -62.14731 | 31871 ft | 478 kts | 324° |
| 2026-05-07 22:53 | 12.02979 | -62.16567 | 32233 ft | 477 kts | 324° |
| 2026-05-07 22:54 | 12.05765 | -62.18398 | 32594 ft | 476 kts | 324° |
| 2026-05-07 22:54 | 12.08549 | -62.20229 | 32912 ft | 477 kts | 324° |
| 2026-05-07 22:54 | 12.11295 | -62.22035 | 32982 ft | 477 kts | 324° |
| 2026-05-07 22:55 | 12.16855 | -62.25692 | 32973 ft | 474 kts | 324° |
| 2026-05-07 22:55 | 12.22408 | -62.29347 | 32971 ft | 474 kts | 324° |
| 2026-05-07 22:56 | 12.27952 | -62.32999 | 32973 ft | 474 kts | 324° |
| 2026-05-07 22:56 | 12.33483 | -62.36643 | 32974 ft | 474 kts | 324° |
| 2026-05-07 22:57 | 12.39038 | -62.40304 | 32971 ft | 474 kts | 324° |
| 2026-05-07 22:57 | 12.44581 | -62.43960 | 32966 ft | 474 kts | 324° |
| 2026-05-07 22:58 | 12.50087 | -62.47593 | 32970 ft | 474 kts | 324° |
| 2026-05-07 22:58 | 12.55617 | -62.51244 | 32971 ft | 474 kts | 324° |
| 2026-05-07 22:59 | 12.61158 | -62.54905 | 32968 ft | 474 kts | 324° |
| 2026-05-07 22:59 | 12.66697 | -62.58564 | 32974 ft | 474 kts | 324° |
| 2026-05-07 23:00 | 12.72228 | -62.62222 | 32974 ft | 473 kts | 324° |
| 2026-05-07 23:00 | 12.77745 | -62.65871 | 32969 ft | 473 kts | 324° |
| 2026-05-07 23:01 | 12.83287 | -62.69541 | 32970 ft | 473 kts | 324° |
| 2026-05-07 23:01 | 12.88775 | -62.73176 | 32970 ft | 473 kts | 324° |
| 2026-05-07 23:02 | 12.94311 | -62.76845 | 32977 ft | 473 kts | 324° |
| 2026-05-07 23:02 | 12.99820 | -62.80498 | 32972 ft | 473 kts | 324° |
| 2026-05-07 23:03 | 13.05331 | -62.84157 | 32979 ft | 473 kts | 324° |
| 2026-05-07 23:03 | 13.10254 | -62.87422 | 32979 ft | 473 kts | 324° |
| 2026-05-07 23:04 | 13.15628 | -62.90991 | 32977 ft | 473 kts | 324° |
| 2026-05-07 23:04 | 13.21163 | -62.94671 | 32977 ft | 473 kts | 324° |
| 2026-05-07 23:05 | 13.26681 | -62.98339 | 32979 ft | 472 kts | 324° |
| 2026-05-07 23:05 | 13.32196 | -63.02003 | 32977 ft | 472 kts | 324° |
| 2026-05-07 23:06 | 13.37696 | -63.05667 | 33003 ft | 472 kts | 324° |
| 2026-05-07 23:06 | 13.43180 | -63.09319 | 32986 ft | 472 kts | 324° |
| 2026-05-07 23:07 | 13.48696 | -63.12993 | 32980 ft | 472 kts | 324° |
| 2026-05-07 23:07 | 13.54211 | -63.16669 | 33005 ft | 472 kts | 324° |
| 2026-05-07 23:08 | 13.59746 | -63.20361 | 32996 ft | 472 kts | 324° |
| 2026-05-07 23:08 | 13.65219 | -63.24014 | 33001 ft | 472 kts | 324° |
| 2026-05-07 23:09 | 13.70731 | -63.27695 | 32978 ft | 472 kts | 324° |
| 2026-05-07 23:09 | 13.76239 | -63.31376 | 33002 ft | 472 kts | 324° |
| 2026-05-07 23:10 | 13.81573 | -63.34942 | 32976 ft | 472 kts | 324° |
| 2026-05-07 23:10 | 13.87072 | -63.38620 | 33002 ft | 472 kts | 325° |
| 2026-05-07 23:11 | 13.92581 | -63.42306 | 33001 ft | 472 kts | 325° |
| 2026-05-07 23:11 | 13.98085 | -63.45987 | 32999 ft | 472 kts | 325° |
| 2026-05-07 23:12 | 14.03577 | -63.49664 | 32990 ft | 472 kts | 325° |
| 2026-05-07 23:12 | 14.09074 | -63.53352 | 32995 ft | 471 kts | 325° |
| 2026-05-07 23:13 | 14.14570 | -63.57040 | 33002 ft | 471 kts | 325° |
| 2026-05-07 23:13 | 14.20036 | -63.60708 | 33000 ft | 471 kts | 325° |
| 2026-05-07 23:14 | 14.25552 | -63.64412 | 32999 ft | 471 kts | 324° |
| 2026-05-07 23:14 | 14.31010 | -63.68081 | 33000 ft | 471 kts | 325° |
| 2026-05-07 23:15 | 14.36500 | -63.71771 | 33000 ft | 471 kts | 325° |
| 2026-05-07 23:15 | 14.41989 | -63.75464 | 33000 ft | 471 kts | 325° |
| 2026-05-07 23:16 | 14.47483 | -63.79163 | 32999 ft | 471 kts | 325° |
| 2026-05-07 23:16 | 14.52971 | -63.82860 | 33000 ft | 471 kts | 325° |
| 2026-05-07 23:17 | 14.58465 | -63.86562 | 32999 ft | 471 kts | 325° |
| 2026-05-07 23:17 | 14.63938 | -63.90253 | 32998 ft | 471 kts | 324° |
| 2026-05-07 23:18 | 14.69392 | -63.93934 | 32998 ft | 471 kts | 325° |
| 2026-05-07 23:18 | 14.74880 | -63.97639 | 32998 ft | 471 kts | 324° |
| 2026-05-07 23:19 | 14.80358 | -64.01341 | 33000 ft | 471 kts | 325° |
| 2026-05-07 23:19 | 14.85822 | -64.05038 | 33014 ft | 469 kts | 325° |
| 2026-05-07 23:20 | 14.91290 | -64.08737 | 33040 ft | 470 kts | 325° |
| 2026-05-07 23:20 | 14.96756 | -64.12434 | 33035 ft | 469 kts | 325° |
| 2026-05-07 23:20 | 14.99255 | -64.14573 | 33023 ft | 466 kts | 310° |
| 2026-05-07 23:21 | 15.01110 | -64.17296 | 33043 ft | 464 kts | 298° |
| 2026-05-07 23:21 | 15.04309 | -64.23116 | 33037 ft | 467 kts | 298° |
| 2026-05-07 23:22 | 15.07415 | -64.29007 | 33033 ft | 467 kts | 297° |
| 2026-05-07 23:22 | 15.10482 | -64.34933 | 33038 ft | 467 kts | 297° |
| 2026-05-07 23:23 | 15.13519 | -64.40827 | 33035 ft | 467 kts | 297° |
| 2026-05-07 23:23 | 15.16563 | -64.46741 | 33036 ft | 466 kts | 297° |
| 2026-05-07 23:24 | 15.19620 | -64.52674 | 33036 ft | 467 kts | 297° |
| 2026-05-07 23:24 | 15.22667 | -64.58602 | 33036 ft | 466 kts | 297° |
| 2026-05-07 23:25 | 15.25711 | -64.64530 | 33046 ft | 466 kts | 297° |
| 2026-05-07 23:25 | 15.28751 | -64.70450 | 33053 ft | 466 kts | 297° |
| 2026-05-07 23:26 | 15.31710 | -64.76216 | 33047 ft | 466 kts | 297° |
| 2026-05-07 23:26 | 15.34735 | -64.82120 | 33037 ft | 466 kts | 297° |
| 2026-05-07 23:27 | 15.39303 | -64.91031 | 33035 ft | 467 kts | 297° |
| 2026-05-07 23:27 | 15.42343 | -64.96976 | 33037 ft | 467 kts | 297° |
| 2026-05-07 23:28 | 15.45384 | -65.02923 | 33034 ft | 467 kts | 297° |
| 2026-05-07 23:28 | 15.48420 | -65.08873 | 33035 ft | 466 kts | 297° |
| 2026-05-07 23:29 | 15.51431 | -65.14768 | 33039 ft | 467 kts | 297° |
| 2026-05-07 23:29 | 15.54462 | -65.20711 | 33034 ft | 466 kts | 297° |
| 2026-05-07 23:30 | 15.57495 | -65.26666 | 33033 ft | 467 kts | 297° |
| 2026-05-07 23:30 | 15.60530 | -65.32626 | 33040 ft | 467 kts | 297° |
| 2026-05-07 23:31 | 15.63556 | -65.38577 | 33038 ft | 466 kts | 297° |
| 2026-05-07 23:31 | 15.66578 | -65.44523 | 33041 ft | 466 kts | 297° |
| 2026-05-07 23:32 | 15.68584 | -65.49699 | 33012 ft | 466 kts | 279° |
| 2026-05-07 23:32 | 15.69366 | -65.57493 | 33066 ft | 470 kts | 276° |
| 2026-05-07 23:33 | 15.69863 | -65.63140 | 33037 ft | 469 kts | 275° |
| 2026-05-07 23:33 | 15.70397 | -65.69900 | 33034 ft | 470 kts | 275° |
| 2026-05-07 23:34 | 15.70913 | -65.76665 | 33042 ft | 470 kts | 275° |
| 2026-05-07 23:34 | 15.71428 | -65.83421 | 33038 ft | 470 kts | 275° |
| 2026-05-07 23:35 | 15.71939 | -65.90181 | 33032 ft | 471 kts | 275° |
| 2026-05-07 23:35 | 15.72445 | -65.96901 | 33036 ft | 471 kts | 275° |
| 2026-05-07 23:36 | 15.72953 | -66.03676 | 33035 ft | 470 kts | 275° |
| 2026-05-07 23:36 | 15.73459 | -66.10446 | 33038 ft | 471 kts | 275° |
| 2026-05-07 23:37 | 15.73960 | -66.17199 | 33036 ft | 471 kts | 275° |
| 2026-05-07 23:37 | 15.74463 | -66.23979 | 33024 ft | 471 kts | 275° |
| 2026-05-07 23:38 | 15.74963 | -66.30751 | 33023 ft | 471 kts | 275° |
| 2026-05-07 23:38 | 15.75459 | -66.37519 | 33029 ft | 471 kts | 275° |
| 2026-05-07 23:39 | 15.75956 | -66.44301 | 33023 ft | 471 kts | 275° |
| 2026-05-07 23:39 | 15.76446 | -66.51044 | 33024 ft | 471 kts | 275° |
| 2026-05-07 23:40 | 15.76938 | -66.57821 | 33028 ft | 471 kts | 275° |
| 2026-05-07 23:40 | 15.77427 | -66.64599 | 33028 ft | 471 kts | 275° |
| 2026-05-07 23:41 | 15.77915 | -66.71386 | 33024 ft | 472 kts | 275° |
| 2026-05-07 23:41 | 15.78401 | -66.78182 | 33027 ft | 472 kts | 275° |
| 2026-05-07 23:42 | 15.78885 | -66.84981 | 33027 ft | 472 kts | 275° |
| 2026-05-07 23:42 | 15.79367 | -66.91766 | 33027 ft | 472 kts | 275° |
| 2026-05-07 23:43 | 15.79779 | -66.97628 | 33026 ft | 473 kts | 275° |
| 2026-05-07 23:43 | 15.80252 | -67.04345 | 33023 ft | 473 kts | 275° |
| 2026-05-07 23:44 | 15.80731 | -67.11166 | 33029 ft | 474 kts | 275° |
| 2026-05-07 23:44 | 15.81205 | -67.17973 | 33026 ft | 474 kts | 275° |
| 2026-05-07 23:45 | 15.81677 | -67.24760 | 33018 ft | 474 kts | 275° |
| 2026-05-07 23:45 | 15.82152 | -67.31600 | 33018 ft | 475 kts | 275° |
| 2026-05-07 23:46 | 15.82584 | -67.37868 | 33017 ft | 475 kts | 275° |
| 2026-05-07 23:46 | 15.82350 | -67.44686 | 33007 ft | 479 kts | 255° |
| 2026-05-07 23:47 | 15.81057 | -67.47891 | 33018 ft | 482 kts | 240° |
| 2026-05-07 23:47 | 15.79056 | -67.50698 | 33020 ft | 486 kts | 229° |
| 2026-05-07 23:47 | 15.76530 | -67.53021 | 33008 ft | 488 kts | 214° |
| 2026-05-07 23:47 | 15.73636 | -67.54786 | 33018 ft | 489 kts | 209° |
| 2026-05-07 23:48 | 15.67620 | -67.58109 | 33017 ft | 491 kts | 207° |
| 2026-05-07 23:48 | 15.61541 | -67.61298 | 33017 ft | 491 kts | 207° |
| 2026-05-07 23:49 | 15.55425 | -67.64460 | 33017 ft | 490 kts | 207° |
| 2026-05-07 23:49 | 15.49353 | -67.67591 | 33018 ft | 490 kts | 207° |
| 2026-05-07 23:50 | 15.43256 | -67.70733 | 33009 ft | 490 kts | 207° |
| 2026-05-07 23:50 | 15.37163 | -67.73871 | 33009 ft | 490 kts | 207° |
| 2026-05-07 23:51 | 15.31350 | -67.76865 | 33007 ft | 489 kts | 207° |
| 2026-05-07 23:51 | 15.25251 | -67.80002 | 33007 ft | 489 kts | 207° |
| 2026-05-07 23:52 | 15.19170 | -67.83128 | 33009 ft | 488 kts | 207° |
| 2026-05-07 23:52 | 15.13125 | -67.86234 | 32999 ft | 488 kts | 207° |
| 2026-05-07 23:53 | 15.07029 | -67.89363 | 32999 ft | 488 kts | 207° |
| 2026-05-07 23:53 | 15.00955 | -67.92481 | 33000 ft | 487 kts | 207° |
| 2026-05-07 23:54 | 14.94886 | -67.95593 | 32998 ft | 487 kts | 207° |
| 2026-05-07 23:54 | 14.88811 | -67.98706 | 32996 ft | 486 kts | 207° |
| 2026-05-07 23:55 | 14.82787 | -68.01791 | 32984 ft | 487 kts | 207° |
| 2026-05-07 23:55 | 14.76698 | -68.04903 | 32987 ft | 489 kts | 207° |
| 2026-05-07 23:56 | 14.70614 | -68.08017 | 32995 ft | 488 kts | 207° |
| 2026-05-07 23:56 | 14.64523 | -68.11132 | 32996 ft | 488 kts | 207° |
| 2026-05-07 23:57 | 14.58433 | -68.14243 | 32994 ft | 488 kts | 207° |
| 2026-05-07 23:57 | 14.52397 | -68.17324 | 32984 ft | 487 kts | 207° |
| 2026-05-07 23:58 | 14.46324 | -68.20424 | 32981 ft | 487 kts | 207° |
| 2026-05-07 23:58 | 14.40253 | -68.23518 | 32977 ft | 486 kts | 207° |
| 2026-05-07 23:59 | 14.34177 | -68.26615 | 32980 ft | 486 kts | 207° |
| 2026-05-07 23:59 | 14.28126 | -68.29696 | 32986 ft | 486 kts | 207° |
| 2026-05-08 00:00 | 14.22064 | -68.32782 | 32966 ft | 486 kts | 207° |
| 2026-05-08 00:00 | 14.16003 | -68.35865 | 32962 ft | 486 kts | 207° |
| 2026-05-08 00:01 | 14.09964 | -68.38934 | 32959 ft | 486 kts | 207° |
| 2026-05-08 00:01 | 14.03924 | -68.42003 | 32957 ft | 486 kts | 207° |
| 2026-05-08 00:02 | 13.97867 | -68.45079 | 32954 ft | 486 kts | 207° |
| 2026-05-08 00:02 | 13.91791 | -68.48161 | 32952 ft | 488 kts | 207° |
| 2026-05-08 00:03 | 13.85707 | -68.51247 | 32953 ft | 488 kts | 207° |
| 2026-05-08 00:03 | 13.79610 | -68.54336 | 32181 ft | 489 kts | 207° |
| 2026-05-08 00:04 | 13.76532 | -68.55895 | 30826 ft | 494 kts | 207° |
| 2026-05-08 00:04 | 13.73463 | -68.57451 | 29836 ft | 487 kts | 207° |
| 2026-05-08 00:04 | 13.70467 | -68.58968 | 29108 ft | 473 kts | 207° |
| 2026-05-08 00:04 | 13.67526 | -68.60456 | 28231 ft | 475 kts | 207° |
| 2026-05-08 00:05 | 13.64554 | -68.61960 | 27177 ft | 486 kts | 206° |
| 2026-05-08 00:05 | 13.61476 | -68.63517 | 26248 ft | 491 kts | 206° |
| 2026-05-08 00:05 | 13.58444 | -68.65051 | 25528 ft | 493 kts | 206° |
| 2026-05-08 00:05 | 13.55364 | -68.66608 | 24747 ft | 492 kts | 206° |
| 2026-05-08 00:06 | 13.52323 | -68.68144 | 23980 ft | 485 kts | 206° |
| 2026-05-08 00:06 | 13.49304 | -68.69669 | 23211 ft | 481 kts | 206° |
| 2026-05-08 00:06 | 13.46309 | -68.71181 | 22448 ft | 478 kts | 206° |
| 2026-05-08 00:06 | 13.43334 | -68.72683 | 21685 ft | 474 kts | 206° |
| 2026-05-08 00:07 | 13.40413 | -68.74159 | 21027 ft | 468 kts | 206° |
| 2026-05-08 00:07 | 13.37501 | -68.75629 | 20280 ft | 465 kts | 206° |
| 2026-05-08 00:07 | 13.34616 | -68.77084 | 19672 ft | 458 kts | 205° |
| 2026-05-08 00:07 | 13.31775 | -68.78517 | 18785 ft | 458 kts | 205° |
| 2026-05-08 00:08 | 13.28961 | -68.79936 | 17974 ft | 443 kts | 205° |
| 2026-05-08 00:08 | 13.26240 | -68.81309 | 17340 ft | 434 kts | 205° |
| 2026-05-08 00:08 | 13.23535 | -68.82673 | 16657 ft | 432 kts | 205° |
| 2026-05-08 00:08 | 13.20844 | -68.84029 | 15985 ft | 429 kts | 205° |
| 2026-05-08 00:09 | 13.18181 | -68.85373 | 15319 ft | 427 kts | 205° |
| 2026-05-08 00:09 | 13.15524 | -68.86712 | 14648 ft | 425 kts | 205° |
| 2026-05-08 00:09 | 13.12878 | -68.88044 | 13983 ft | 422 kts | 205° |
| 2026-05-08 00:09 | 13.10257 | -68.89361 | 13421 ft | 417 kts | 205° |
| 2026-05-08 00:10 | 13.07654 | -68.90670 | 12753 ft | 415 kts | 205° |
| 2026-05-08 00:10 | 13.05070 | -68.91971 | 12222 ft | 410 kts | 205° |
| 2026-05-08 00:10 | 13.02583 | -68.93222 | 11764 ft | 404 kts | 205° |
| 2026-05-08 00:10 | 13.00154 | -68.94445 | 11520 ft | 381 kts | 205° |
| 2026-05-08 00:11 | 12.97916 | -68.95552 | 11345 ft | 356 kts | 201° |
| 2026-05-08 00:11 | 12.95660 | -68.96187 | 11166 ft | 335 kts | 188° |
| 2026-05-08 00:11 | 12.93422 | -68.96560 | 11003 ft | 320 kts | 187° |
| 2026-05-08 00:11 | 12.91256 | -68.96914 | 10855 ft | 311 kts | 187° |
| 2026-05-08 00:12 | 12.89151 | -68.97259 | 10694 ft | 302 kts | 187° |
| 2026-05-08 00:12 | 12.87102 | -68.97597 | 10552 ft | 294 kts | 187° |
| 2026-05-08 00:12 | 12.85115 | -68.97927 | 10429 ft | 284 kts | 187° |
| 2026-05-08 00:12 | 12.83194 | -68.98247 | 10322 ft | 275 kts | 188° |
| 2026-05-08 00:13 | 12.81332 | -68.98563 | 10274 ft | 268 kts | 187° |
| 2026-05-08 00:13 | 12.79464 | -68.98878 | 10200 ft | 274 kts | 187° |
| 2026-05-08 00:13 | 12.77596 | -68.99193 | 9983 ft | 271 kts | 187° |
| 2026-05-08 00:13 | 12.75739 | -68.99507 | 9757 ft | 269 kts | 187° |
| 2026-05-08 00:14 | 12.73882 | -68.99821 | 9364 ft | 273 kts | 188° |
| 2026-05-08 00:14 | 12.71992 | -69.00138 | 8891 ft | 279 kts | 187° |
| 2026-05-08 00:14 | 12.70070 | -69.00431 | 8433 ft | 284 kts | 187° |
| 2026-05-08 00:14 | 12.68098 | -69.00724 | 7968 ft | 288 kts | 187° |
| 2026-05-08 00:15 | 12.66093 | -69.01021 | 7485 ft | 293 kts | 186° |
| 2026-05-08 00:15 | 12.64060 | -69.01324 | 7018 ft | 297 kts | 186° |
| 2026-05-08 00:15 | 12.62008 | -69.01631 | 6539 ft | 300 kts | 187° |
| 2026-05-08 00:15 | 12.59960 | -69.01937 | 6071 ft | 303 kts | 187° |
| 2026-05-08 00:16 | 12.57847 | -69.02252 | 5575 ft | 301 kts | 187° |
| 2026-05-08 00:16 | 12.55830 | -69.02557 | 5133 ft | 293 kts | 187° |
| 2026-05-08 00:16 | 12.53851 | -69.02865 | 4761 ft | 283 kts | 186° |
| 2026-05-08 00:16 | 12.51934 | -69.03177 | 4371 ft | 275 kts | 186° |
| 2026-05-08 00:17 | 12.50061 | -69.03490 | 3985 ft | 269 kts | 187° |
| 2026-05-08 00:17 | 12.48240 | -69.03735 | 3617 ft | 261 kts | 184° |
| 2026-05-08 00:17 | 12.46454 | -69.03949 | 3244 ft | 256 kts | 184° |
| 2026-05-08 00:17 | 12.44728 | -69.04168 | 2986 ft | 244 kts | 184° |
| 2026-05-08 00:18 | 12.43083 | -69.04387 | 2772 ft | 233 kts | 184° |
| 2026-05-08 00:18 | 12.41510 | -69.04598 | 2554 ft | 221 kts | 181° |
| 2026-05-08 00:18 | 12.40020 | -69.04642 | 2363 ft | 208 kts | 175° |
| 2026-05-08 00:18 | 12.38602 | -69.04613 | 2148 ft | 198 kts | 174° |
| 2026-05-08 00:19 | 12.37224 | -69.04578 | 2092 ft | 202 kts | 174° |
| 2026-05-08 00:19 | 12.35821 | -69.04540 | 2049 ft | 203 kts | 174° |
| 2026-05-08 00:19 | 12.34453 | -69.04508 | 2013 ft | 187 kts | 174° |
| 2026-05-08 00:19 | 12.33230 | -69.04526 | 2020 ft | 162 kts | 178° |
| 2026-05-08 00:20 | 12.32489 | -69.04563 | 2074 ft | 160 kts | 178° |
| 2026-05-08 00:20 | 12.31382 | -69.04609 | 2143 ft | 159 kts | 174° |
| 2026-05-08 00:20 | 12.30309 | -69.04449 | 2092 ft | 156 kts | 162° |
| 2026-05-08 00:20 | 12.29261 | -69.04164 | 1965 ft | 154 kts | 159° |
| 2026-05-08 00:21 | 12.28238 | -69.03832 | 1891 ft | 155 kts | 159° |
| 2026-05-08 00:21 | 12.27213 | -69.03498 | 1731 ft | 154 kts | 157° |
| 2026-05-08 00:21 | 12.26210 | -69.03123 | 1512 ft | 153 kts | 153° |
| 2026-05-08 00:21 | 12.25229 | -69.02711 | 1319 ft | 151 kts | 153° |
| 2026-05-08 00:22 | 12.24279 | -69.02244 | 1289 ft | 152 kts | 146° |
| 2026-05-08 00:22 | 12.23362 | -69.01708 | 1060 ft | 151 kts | 144° |
| 2026-05-08 00:22 | 12.22489 | -69.01145 | 942 ft | 150 kts | 142° |
| 2026-05-08 00:22 | 12.21644 | -69.00514 | 773 ft | 151 kts | 136° |
| 2026-05-08 00:23 | 12.20794 | -68.99836 | 639 ft | 161 kts | 137° |
| 2026-05-08 00:23 | 12.19982 | -68.99016 | 518 ft | 166 kts | 125° |
| 2026-05-08 00:23 | 12.19415 | -68.98032 | 377 ft | 154 kts | 110° |
| 2026-05-08 00:23 | 12.19107 | -68.96985 | 226 ft | 173 kts | 97° |
| 2026-05-08 00:24 | 12.18864 | -68.95649 | 715 ft | 207 kts | 98° |
| 2026-05-08 00:24 | 12.18596 | -68.94084 | 1323 ft | 235 kts | 97° |
| 2026-05-08 00:24 | 12.18138 | -68.92417 | 2074 ft | 250 kts | 115° |
| 2026-05-08 00:24 | 12.17085 | -68.91114 | 3052 ft | 232 kts | 139° |
| 2026-05-08 00:25 | 12.15621 | -68.90398 | 3539 ft | 244 kts | 163° |
| 2026-05-08 00:25 | 12.13933 | -68.90311 | 3647 ft | 243 kts | 179° |
| 2026-05-08 00:25 | 12.12333 | -68.90541 | 3614 ft | 226 kts | 196° |
| 2026-05-08 00:25 | 12.11036 | -68.91425 | 3521 ft | 226 kts | 222° |
| 2026-05-08 00:26 | 12.10175 | -68.92759 | 3413 ft | 229 kts | 251° |
| 2026-05-08 00:26 | 12.10068 | -68.94366 | 3315 ft | 228 kts | 277° |
| 2026-05-08 00:26 | 12.10329 | -68.95964 | 3263 ft | 229 kts | 281° |
| 2026-05-08 00:26 | 12.10634 | -68.97557 | 3190 ft | 227 kts | 281° |
| 2026-05-08 00:27 | 12.10919 | -68.99028 | 3079 ft | 211 kts | 282° |
| 2026-05-08 00:27 | 12.11191 | -69.00443 | 2930 ft | 196 kts | 281° |
| 2026-05-08 00:27 | 12.11436 | -69.01745 | 2796 ft | 175 kts | 281° |
| 2026-05-08 00:27 | 12.11818 | -69.02898 | 2497 ft | 168 kts | 303° |
| 2026-05-08 00:28 | 12.12583 | -69.03740 | 2504 ft | 162 kts | 328° |
| 2026-05-08 00:28 | 12.13599 | -69.04153 | 2617 ft | 154 kts | 354° |
| 2026-05-08 00:28 | 12.14684 | -69.04290 | 2430 ft | 162 kts | 358° |
| 2026-05-08 00:28 | 12.15812 | -69.04344 | 2490 ft | 162 kts | 2° |
| 2026-05-08 00:29 | 12.16978 | -69.04338 | 2387 ft | 172 kts | 8° |
| 2026-05-08 00:29 | 12.18081 | -69.03998 | 2164 ft | 159 kts | 31° |
| 2026-05-08 00:29 | 12.18974 | -69.03380 | 1782 ft | 152 kts | 37° |
| 2026-05-08 00:29 | 12.19683 | -69.02614 | 1426 ft | 149 kts | 57° |
| 2026-05-08 00:30 | 12.20094 | -69.01642 | 1134 ft | 151 kts | 80° |
| 2026-05-08 00:30 | 12.19961 | -69.00575 | 813 ft | 154 kts | 103° |
| 2026-05-08 00:30 | 12.19659 | -68.99517 | 583 ft | 158 kts | 100° |
| 2026-05-08 00:30 | 12.19400 | -68.98422 | 375 ft | 156 kts | 98° |
| 2026-05-08 00:31 | 12.19179 | -68.97349 | 176 ft | 155 kts | 97° |
| 2026-05-08 00:31 | 12.18954 | -68.96291 | 45 ft | 144 kts | 99° |
| 2026-05-08 00:31 | 12.18792 | -68.95499 | 42 ft | 61 kts | 103° |
| 2026-05-08 00:31 | 12.18722 | -68.95393 | 44 ft | 9 kts | 197° |
| 2026-05-08 00:32 | 12.18645 | -68.95416 | 45 ft | 14 kts | 195° |
| 2026-05-08 00:32 | 12.18594 | -68.95444 | 44 ft | 0 kts | 243° |
| 2026-05-08 00:32 | 12.18594 | -68.95446 | 45 ft | 1 kts | 264° |
| 2026-05-08 00:32 | 12.18601 | -68.95486 | 45 ft | 9 kts | 283° |
| 2026-05-08 00:33 | 12.18615 | -68.95546 | 45 ft | 1 kts | 284° |
| 2026-05-08 00:33 | 12.18620 | -68.95567 | 45 ft | 5 kts | 283° |
| 2026-05-08 00:33 | 12.18629 | -68.95611 | 43 ft | 8 kts | 281° |
| 2026-05-08 00:33 | 12.18608 | -68.95666 | 43 ft | 9 kts | 208° |
| 2026-05-08 00:34 | 12.18551 | -68.95680 | 46 ft | 4 kts | 193° |
| 2026-05-08 00:34 | 12.18549 | -68.95680 | 46 ft | 0 kts | 193° |